createdAt,value
2023-09-12T00:00:01.626Z,100462.47
2023-09-12T00:02:39.890Z,100459.94
2023-09-12T00:05:08.885Z,100461.88
2023-09-12T00:07:37.207Z,100464.63
2023-09-12T00:10:07.347Z,100467.44
2023-09-12T00:12:35.128Z,100454.06
2023-09-12T00:15:05.467Z,100464.06
2023-09-12T00:17:33.334Z,100452.47
2023-09-12T00:20:01.124Z,100456.09
2023-09-12T00:22:28.873Z,100466.91
2023-09-12T00:24:56.633Z,100464.34
2023-09-12T00:27:25.753Z,100459.09
2023-09-12T00:29:53.640Z,100459.22
2023-09-12T00:32:21.404Z,100467.34
2023-09-12T00:34:49.185Z,100454.88
2023-09-12T00:37:16.964Z,100452.25
2023-09-12T00:39:44.814Z,100452.34
2023-09-12T00:42:12.652Z,100452.41
2023-09-12T00:44:41.768Z,100452.47
2023-09-12T00:47:12.126Z,100451.66
2023-09-12T00:49:41.492Z,100452.63
2023-09-12T00:52:10.121Z,100444.69
2023-09-12T00:54:37.938Z,100443.88
2023-09-12T00:57:06.053Z,100447.59
2023-09-12T00:59:34.452Z,100443.13
2023-09-12T01:02:04.028Z,100442.31
2023-09-12T01:04:35.314Z,100440.50
2023-09-12T01:07:05.024Z,100437.13
2023-09-12T01:09:33.105Z,100432.81
2023-09-12T01:12:01.761Z,100430.34
2023-09-12T01:14:32.968Z,100428.63
2023-09-12T01:17:02.260Z,100424.28
2023-09-12T01:19:31.620Z,100427.94
2023-09-12T01:22:29.832Z,100428.03
2023-09-12T01:25:36.160Z,100427.25
2023-09-12T01:28:08.082Z,100425.56
2023-09-12T01:30:37.736Z,100427.44
2023-09-12T01:33:06.588Z,100426.53
2023-09-12T01:35:34.591Z,100430.31
2023-09-12T01:38:02.679Z,100425.84
2023-09-12T01:40:36.776Z,100423.31
2023-09-12T01:43:07.062Z,100426.91
2023-09-12T01:45:35.433Z,100429.66
2023-09-12T01:48:05.088Z,100435.13
2023-09-12T01:50:33.513Z,100427.13
2023-09-12T01:53:02.175Z,100418.31
2023-09-12T01:55:30.925Z,100423.75
2023-09-12T01:57:59.131Z,100433.63
2023-09-12T02:00:28.595Z,100437.25
2023-09-12T02:02:56.880Z,100433.72
2023-09-12T02:05:24.764Z,100433.84
2023-09-12T02:07:52.670Z,100429.38
2023-09-12T02:10:20.593Z,100426.81
2023-09-12T02:12:48.361Z,100431.31
2023-09-12T02:15:16.711Z,100438.50
2023-09-12T02:17:46.056Z,100431.41
2023-09-12T02:20:13.862Z,100425.28
2023-09-12T02:22:41.774Z,100426.25
2023-09-12T02:25:10.248Z,100420.38
2023-09-12T02:27:38.285Z,100410.75
2023-09-12T02:30:07.621Z,100411.78
2023-09-12T02:32:35.778Z,100415.41
2023-09-12T02:35:05.493Z,100412.81
2023-09-12T02:37:33.258Z,100414.59
2023-09-12T02:40:01.362Z,100411.06
2023-09-12T02:42:29.109Z,100417.34
2023-09-12T02:44:56.927Z,100412.94
2023-09-12T02:47:24.769Z,100410.25
2023-09-12T02:49:52.529Z,100419.16
2023-09-12T02:52:21.790Z,100423.66
2023-09-12T02:54:49.752Z,100423.72
2023-09-12T02:57:17.858Z,100430.00
2023-09-12T02:59:46.523Z,100425.59
2023-09-12T03:02:14.296Z,100428.31
2023-09-12T03:04:42.260Z,100430.09
2023-09-12T03:07:09.985Z,100430.25
2023-09-12T03:09:39.639Z,100427.66
2023-09-12T03:12:08.011Z,100424.97
2023-09-12T03:14:36.541Z,100429.47
2023-09-12T03:17:04.956Z,100422.38
2023-09-12T03:19:34.101Z,100430.44
2023-09-12T03:22:01.913Z,100429.63
2023-09-12T03:24:30.373Z,100427.00
2023-09-12T03:26:59.592Z,100425.22
2023-09-12T03:29:27.696Z,100421.78
2023-09-12T03:31:55.663Z,100424.50
2023-09-12T03:34:23.700Z,100435.28
2023-09-12T03:36:51.601Z,100440.75
2023-09-12T03:39:19.543Z,100438.97
2023-09-12T03:41:47.419Z,100439.88
2023-09-12T03:44:16.638Z,100443.50
2023-09-12T03:46:44.734Z,100438.16
2023-09-12T03:49:13.492Z,100442.69
2023-09-12T03:51:41.640Z,100448.13
2023-09-12T03:54:09.533Z,100456.13
2023-09-12T03:56:37.434Z,100453.44
2023-09-12T03:59:05.311Z,100447.22
2023-09-12T04:01:34.652Z,100448.16
2023-09-12T04:04:04.525Z,100446.41
2023-09-12T04:06:32.654Z,100461.69
2023-09-12T04:09:00.446Z,100460.81
2023-09-12T04:11:43.862Z,100462.63
2023-09-12T04:14:13.943Z,100456.50
2023-09-12T04:16:43.188Z,100470.84
2023-09-12T04:19:11.084Z,100475.38
2023-09-12T04:21:39.582Z,100472.78
2023-09-12T04:24:08.521Z,100470.09
2023-09-12T04:26:37.073Z,100470.94
2023-09-12T04:29:04.953Z,100469.19
2023-09-12T04:31:35.737Z,100459.41
2023-09-12T04:34:05.270Z,100458.56
2023-09-12T04:36:33.114Z,100471.03
2023-09-12T04:39:01.488Z,100472.81
2023-09-12T04:41:29.374Z,100469.28
2023-09-12T04:43:58.159Z,100472.91
2023-09-12T04:46:25.981Z,100469.28
2023-09-12T04:48:53.875Z,100454.09
2023-09-12T04:51:23.166Z,100464.00
2023-09-12T04:53:52.927Z,100458.63
2023-09-12T04:56:21.389Z,100458.56
2023-09-12T04:58:49.480Z,100460.38
2023-09-12T05:01:17.535Z,100460.38
2023-09-12T05:03:45.484Z,100454.13
2023-09-12T05:06:14.441Z,100456.81
2023-09-12T05:08:44.445Z,100460.38
2023-09-12T05:11:12.657Z,100483.59
2023-09-12T05:13:40.984Z,100483.59
2023-09-12T05:16:08.859Z,100475.53
2023-09-12T05:18:36.704Z,100474.59
2023-09-12T05:21:04.889Z,100478.19
2023-09-12T05:23:33.060Z,100481.63
2023-09-12T05:26:02.688Z,100478.06
2023-09-12T05:28:30.520Z,100493.13
2023-09-12T05:30:58.541Z,100492.16
2023-09-12T05:33:26.817Z,100493.91
2023-09-12T05:35:55.441Z,100497.38
2023-09-12T05:38:24.061Z,100496.44
2023-09-12T05:40:52.025Z,100509.81
2023-09-12T05:43:21.525Z,100512.38
2023-09-12T05:45:49.708Z,100530.19
2023-09-12T05:48:17.653Z,100541.69
2023-09-12T05:50:45.658Z,100545.09
2023-09-12T05:53:13.533Z,100544.91
2023-09-12T05:55:41.246Z,100533.13
2023-09-12T05:58:09.031Z,100552.56
2023-09-12T06:00:39.060Z,100536.06
2023-09-12T06:03:06.956Z,100549.28
2023-09-12T06:05:34.801Z,100530.13
2023-09-12T06:08:03.139Z,100550.44
2023-09-12T06:10:30.945Z,100556.44
2023-09-12T06:12:58.706Z,100546.34
2023-09-12T06:15:26.820Z,100542.50
2023-09-12T06:17:56.218Z,100549.38
2023-09-12T06:20:24.522Z,100546.44
2023-09-12T06:22:52.588Z,100553.38
2023-09-12T06:25:20.498Z,100555.81
2023-09-12T06:27:48.442Z,100548.31
2023-09-12T06:30:16.560Z,100556.03
2023-09-12T06:32:44.309Z,100564.75
2023-09-12T06:35:13.662Z,100555.47
2023-09-12T06:37:41.400Z,100571.28
2023-09-12T06:40:10.171Z,100559.44
2023-09-12T06:42:37.986Z,100560.91
2023-09-12T06:45:06.347Z,100557.03
2023-09-12T06:47:34.106Z,100557.63
2023-09-12T06:50:01.950Z,100560.94
2023-09-12T06:52:31.002Z,100554.34
2023-09-12T06:54:59.696Z,100556.75
2023-09-12T06:57:27.476Z,100567.25
2023-09-12T06:59:55.232Z,100558.88
2023-09-12T07:02:23.018Z,100553.16
2023-09-12T07:04:50.795Z,100556.47
2023-09-12T07:07:18.565Z,100560.59
2023-09-12T07:09:48.405Z,100550.44
2023-09-12T07:12:16.193Z,100555.44
2023-09-12T07:14:43.927Z,100556.94
2023-09-12T07:17:11.661Z,100567.44
2023-09-12T07:19:39.715Z,100559.97
2023-09-12T07:22:07.454Z,100562.34
2023-09-12T07:24:35.197Z,100563.75
2023-09-12T07:27:04.402Z,100579.56
2023-09-12T07:29:32.132Z,100581.94
2023-09-12T07:32:01.278Z,100586.16
2023-09-12T07:34:29.314Z,100600.09
2023-09-12T07:36:57.054Z,100606.97
2023-09-12T07:39:24.868Z,100621.72
2023-09-12T07:41:52.696Z,100628.47
2023-09-12T07:44:22.147Z,100623.59
2023-09-12T07:46:49.958Z,100629.28
2023-09-12T07:49:17.784Z,100643.09
2023-09-12T07:51:45.567Z,100656.72
2023-09-12T07:54:13.435Z,100656.88
2023-09-12T07:56:44.047Z,100662.44
2023-09-12T07:59:13.300Z,100656.34
2023-09-12T08:01:42.596Z,100666.47
2023-09-12T08:04:10.411Z,100670.38
2023-09-12T08:06:55.324Z,100670.06
2023-09-12T08:09:25.581Z,100674.19
2023-09-12T08:11:53.343Z,100671.16
2023-09-12T08:14:22.403Z,100673.50
2023-09-12T08:16:51.574Z,100664.88
2023-09-12T08:19:20.015Z,100661.59
2023-09-12T08:21:48.106Z,100660.94
2023-09-12T08:24:15.980Z,100654.00
2023-09-12T08:26:46.202Z,100660.38
2023-09-12T08:29:13.954Z,100654.41
2023-09-12T08:31:41.706Z,100647.34
2023-09-12T08:34:10.924Z,100641.28
2023-09-12T08:36:38.685Z,100635.06
2023-09-12T08:39:09.379Z,100631.56
2023-09-12T08:41:37.292Z,100626.41
2023-09-12T08:44:06.913Z,100630.16
2023-09-12T08:46:34.716Z,100622.31
2023-09-12T08:49:03.922Z,100617.09
2023-09-12T08:51:33.434Z,100623.41
2023-09-12T08:54:01.870Z,100619.97
2023-09-12T08:56:29.943Z,100610.88
2023-09-12T08:58:58.173Z,100613.59
2023-09-12T09:01:28.841Z,100610.94
2023-09-12T09:03:57.197Z,100603.66
2023-09-12T09:06:29.014Z,100610.03
2023-09-12T09:08:58.610Z,100592.84
2023-09-12T09:11:28.720Z,100593.13
2023-09-12T09:13:57.263Z,100586.41
2023-09-12T09:16:25.531Z,100588.47
2023-09-12T09:18:59.210Z,100583.38
2023-09-12T09:21:28.913Z,100578.28
2023-09-12T09:23:59.998Z,100578.56
2023-09-12T09:26:41.802Z,100574.13
2023-09-12T09:29:11.721Z,100572.31
2023-09-12T09:31:43.225Z,100562.44
2023-09-12T09:34:17.298Z,100564.44
2023-09-12T09:36:50.560Z,100567.41
2023-09-12T09:39:20.354Z,100577.50
2023-09-12T09:41:49.869Z,100571.28
2023-09-12T09:44:17.804Z,100566.06
2023-09-12T09:46:46.390Z,100570.63
2023-09-12T09:49:16.671Z,100582.53
2023-09-12T09:51:47.255Z,100572.16
2023-09-12T09:54:15.886Z,100572.69
2023-09-12T09:56:49.614Z,100582.50
2023-09-12T09:59:18.358Z,100579.53
2023-09-12T10:01:47.213Z,100579.03
2023-09-12T10:04:15.814Z,100577.34
2023-09-12T10:06:46.484Z,100567.06
2023-09-12T10:09:16.316Z,100565.00
2023-09-12T10:11:48.345Z,100567.34
2023-09-12T10:14:20.435Z,100563.56
2023-09-12T10:16:50.221Z,100551.72
2023-09-12T10:19:22.797Z,100546.53
2023-09-12T10:21:56.320Z,100535.09
2023-09-12T10:24:28.116Z,100534.34
2023-09-12T10:26:57.136Z,100535.34
2023-09-12T10:29:26.365Z,100529.88
2023-09-12T10:31:54.193Z,100530.88
2023-09-12T10:34:24.089Z,100539.19
2023-09-12T10:36:53.331Z,100534.34
2023-09-12T10:39:23.126Z,100533.63
2023-09-12T10:41:53.811Z,100535.06
2023-09-12T10:44:23.610Z,100546.09
2023-09-12T10:46:56.638Z,100536.09
2023-09-12T10:49:27.744Z,100539.56
2023-09-12T10:51:57.088Z,100542.41
2023-09-12T10:54:26.546Z,100545.88
2023-09-12T10:57:07.243Z,100546.50
2023-09-12T10:59:36.722Z,100546.75
2023-09-12T11:02:36.348Z,100537.72
2023-09-12T11:05:06.523Z,100544.91
2023-09-12T11:07:45.443Z,100538.47
2023-09-12T11:10:21.003Z,100536.25
2023-09-12T11:12:51.169Z,100542.03
2023-09-12T11:15:20.498Z,100535.94
2023-09-12T11:17:50.903Z,100547.19
2023-09-12T11:20:19.621Z,100541.97
2023-09-12T11:22:49.404Z,100548.81
2023-09-12T11:25:23.826Z,100543.94
2023-09-12T11:28:07.460Z,100548.53
2023-09-12T11:30:35.947Z,100552.09
2023-09-12T11:33:08.043Z,100557.66
2023-09-12T11:35:41.945Z,100565.31
2023-09-12T11:38:12.502Z,100570.44
2023-09-12T11:40:47.714Z,100564.06
2023-09-12T11:43:26.514Z,100571.53
2023-09-12T11:45:56.329Z,100562.34
2023-09-12T11:48:25.724Z,100566.41
2023-09-12T11:50:55.434Z,100550.72
2023-09-12T11:53:26.499Z,100561.69
2023-09-12T11:55:58.730Z,100560.97
2023-09-12T11:58:28.270Z,100560.19
2023-09-12T12:00:57.622Z,100562.22
2023-09-12T12:03:28.656Z,100566.13
2023-09-12T12:05:57.922Z,100571.63
2023-09-12T12:10:57.385Z,100574.09
2023-09-12T12:13:25.213Z,100576.97
2023-09-12T12:15:53.139Z,100566.84
2023-09-12T12:18:21.327Z,100569.19
2023-09-12T12:20:50.571Z,100569.56
2023-09-12T12:23:18.342Z,100571.38
2023-09-12T12:25:46.108Z,100575.44
2023-09-12T12:28:14.019Z,100579.22
2023-09-12T12:30:42.067Z,100572.69
2023-09-12T12:33:52.027Z,100563.00
2023-09-12T12:36:04.230Z,100566.31
2023-09-12T12:38:36.605Z,100563.22
2023-09-12T12:41:05.672Z,100574.25
2023-09-12T12:43:33.610Z,100565.78
2023-09-12T12:46:01.402Z,100571.59
2023-09-12T12:48:33.256Z,100570.91
2023-09-12T12:51:14.234Z,100565.16
2023-09-12T12:53:52.320Z,100565.22
2023-09-12T12:56:23.737Z,100566.97
2023-09-12T12:58:53.026Z,100564.31
2023-09-12T13:01:21.192Z,100562.03
2023-09-12T13:03:51.170Z,100572.19
2023-09-12T13:06:20.855Z,100568.91
2023-09-12T13:08:50.293Z,100564.13
2023-09-12T13:11:19.053Z,100570.28
2023-09-12T13:13:49.149Z,100560.72
2023-09-12T13:16:17.980Z,100568.81
2023-09-12T13:18:46.314Z,100562.03
2023-09-12T13:21:14.677Z,100562.25
2023-09-12T13:23:43.943Z,100568.75
2023-09-12T13:26:12.228Z,100562.09
2023-09-12T13:28:40.101Z,100566.75
2023-09-12T13:31:07.994Z,100566.69
2023-09-12T13:33:35.938Z,100571.31
2023-09-12T13:36:03.728Z,100566.03
2023-09-12T13:38:31.505Z,100552.03
2023-09-12T13:41:00.605Z,100552.22
2023-09-12T13:43:29.286Z,100555.75
2023-09-12T13:45:57.168Z,100553.47
2023-09-12T13:48:25.525Z,100559.19
2023-09-12T13:50:53.290Z,100553.16
2023-09-12T13:53:21.032Z,100552.50
2023-09-12T13:55:49.343Z,100541.56
2023-09-12T13:58:19.016Z,100540.41
2023-09-12T14:00:46.833Z,100532.25
2023-09-12T14:03:14.938Z,100527.84
2023-09-12T14:05:43.433Z,100526.47
2023-09-12T14:08:12.329Z,100524.25
2023-09-12T14:10:40.752Z,100527.34
2023-09-12T14:13:21.329Z,100529.06
2023-09-12T14:15:52.438Z,100526.63
2023-09-12T14:18:22.291Z,100522.19
2023-09-12T14:20:53.720Z,100513.75
2023-09-12T14:23:23.111Z,100510.13
2023-09-12T14:25:51.475Z,100513.41
2023-09-12T14:28:19.547Z,100506.75
2023-09-12T14:30:47.601Z,100499.00
2023-09-12T14:33:18.510Z,100489.75
2023-09-12T14:35:46.851Z,100490.97
2023-09-12T14:38:14.962Z,100479.97
2023-09-12T14:40:45.476Z,100479.16
2023-09-12T14:43:14.475Z,100484.75
2023-09-12T14:45:42.686Z,100476.56
2023-09-12T14:48:10.576Z,100467.00
2023-09-12T14:50:43.550Z,100471.41
2023-09-12T14:53:14.037Z,100472.31
2023-09-12T14:55:42.027Z,100470.03
2023-09-12T14:58:09.912Z,100461.47
2023-09-12T15:00:39.066Z,100458.81
2023-09-12T15:03:07.196Z,100457.81
2023-09-12T15:05:35.147Z,100465.00
2023-09-12T15:08:04.673Z,100471.69
2023-09-12T15:10:32.777Z,100472.19
2023-09-12T15:13:00.637Z,100477.56
2023-09-12T15:15:28.824Z,100468.88
2023-09-12T15:17:58.025Z,100477.66
2023-09-12T15:20:25.818Z,100482.06
2023-09-12T15:22:53.538Z,100477.44
2023-09-12T15:25:22.663Z,100475.50
2023-09-12T15:27:50.437Z,100469.13
2023-09-12T15:30:18.414Z,100467.06
2023-09-12T15:32:46.822Z,100465.72
2023-09-12T15:35:14.600Z,100466.81
2023-09-12T15:37:42.327Z,100467.34
2023-09-12T15:40:11.333Z,100460.44
2023-09-12T15:42:40.485Z,100470.06
2023-09-12T15:45:11.026Z,100474.31
2023-09-12T15:47:39.564Z,100472.13
2023-09-12T15:50:08.378Z,100478.22
2023-09-12T15:52:38.690Z,100478.06
2023-09-12T15:55:07.214Z,100475.97
2023-09-12T15:57:36.657Z,100473.16
2023-09-12T16:00:07.865Z,100468.25
2023-09-12T16:02:40.654Z,100474.47
2023-09-12T16:05:09.813Z,100470.91
2023-09-12T16:07:38.071Z,100464.75
2023-09-12T16:10:08.793Z,100468.38
2023-09-12T16:12:36.911Z,100467.78
2023-09-12T16:15:08.012Z,100466.81
2023-09-12T16:17:38.311Z,100473.44
2023-09-12T16:20:09.692Z,100478.78
2023-09-12T16:22:37.541Z,100478.03
2023-09-12T16:25:06.014Z,100485.59
2023-09-12T16:27:34.335Z,100474.81
2023-09-12T16:30:04.015Z,100475.88
2023-09-12T16:32:33.111Z,100471.50
2023-09-12T16:35:01.516Z,100480.53
2023-09-12T16:37:30.050Z,100480.75
2023-09-12T16:39:58.244Z,100484.50
2023-09-12T16:42:27.928Z,100471.06
2023-09-12T16:44:55.677Z,100480.06
2023-09-12T16:47:23.391Z,100484.69
2023-09-12T16:49:52.465Z,100484.50
2023-09-12T16:52:20.242Z,100493.28
2023-09-12T16:54:48.035Z,100490.47
2023-09-12T16:57:16.118Z,100485.81
2023-09-12T16:59:44.331Z,100479.19
2023-09-12T17:02:13.059Z,100480.59
2023-09-12T17:04:43.679Z,100477.78
2023-09-12T17:07:13.571Z,100480.41
2023-09-12T17:09:41.932Z,100468.44
2023-09-12T17:12:10.603Z,100458.56
2023-09-12T17:14:38.378Z,100453.66
2023-09-12T17:17:06.873Z,100456.03
2023-09-12T17:19:34.618Z,100451.13
2023-09-12T17:22:02.614Z,100447.22
2023-09-12T17:24:31.746Z,100446.97
2023-09-12T17:27:00.090Z,100444.81
2023-09-12T17:29:27.826Z,100458.91
2023-09-12T17:31:55.632Z,100467.50
2023-09-12T17:34:41.014Z,100479.78
2023-09-12T17:37:08.991Z,100475.78
2023-09-12T17:39:38.748Z,100485.34
2023-09-12T17:42:07.384Z,100483.16
2023-09-12T17:44:35.317Z,100486.34
2023-09-12T17:47:03.740Z,100479.03
2023-09-12T17:49:33.838Z,100472.38
2023-09-12T17:52:02.524Z,100473.94
2023-09-12T17:54:30.451Z,100471.94
2023-09-12T17:56:59.628Z,100484.34
2023-09-12T17:59:27.917Z,100477.63
2023-09-12T18:01:55.832Z,100470.84
2023-09-12T18:04:23.836Z,100471.38
2023-09-12T18:06:51.892Z,100471.84
2023-09-12T18:09:19.926Z,100479.47
2023-09-12T18:11:48.306Z,100488.97
2023-09-12T18:14:17.980Z,100490.34
2023-09-12T18:16:46.135Z,100488.88
2023-09-12T18:19:14.602Z,100490.13
2023-09-12T18:21:42.507Z,100482.13
2023-09-12T18:24:10.292Z,100469.75
2023-09-12T18:26:38.159Z,100480.78
2023-09-12T18:29:06.370Z,100481.75
2023-09-12T18:31:35.527Z,100474.66
2023-09-12T18:34:03.484Z,100479.41
2023-09-12T18:36:31.390Z,100491.28
2023-09-12T18:38:59.167Z,100500.50
2023-09-12T18:41:27.067Z,100508.91
2023-09-12T18:43:54.981Z,100509.28
2023-09-12T18:46:23.001Z,100510.59
2023-09-12T18:48:52.353Z,100514.63
2023-09-12T18:51:20.363Z,100513.34
2023-09-12T18:53:48.111Z,100508.41
2023-09-12T18:56:16.175Z,100518.72
2023-09-12T18:58:44.599Z,100515.53
2023-09-12T19:01:12.564Z,100522.19
2023-09-12T19:03:41.698Z,100514.56
2023-09-12T19:06:10.959Z,100516.84
2023-09-12T19:08:41.792Z,100514.41
2023-09-12T19:11:10.429Z,100508.47
2023-09-12T19:13:38.285Z,100510.66
2023-09-12T19:16:06.156Z,100509.16
2023-09-12T19:18:33.993Z,100511.34
2023-09-12T19:21:01.778Z,100509.84
2023-09-12T19:23:30.857Z,100513.75
2023-09-12T19:25:58.593Z,100512.97
2023-09-12T19:28:26.339Z,100510.59
2023-09-12T19:30:54.202Z,100509.94
2023-09-12T19:33:22.088Z,100514.72
2023-09-12T19:35:49.835Z,100525.72
2023-09-12T19:38:17.582Z,100531.31
2023-09-12T19:40:46.759Z,100536.78
2023-09-12T19:43:14.549Z,100538.69
2023-09-12T19:45:42.400Z,100533.47
2023-09-12T19:48:12.388Z,100520.97
2023-09-12T19:50:40.331Z,100524.81
2023-09-12T19:53:08.103Z,100533.94
2023-09-12T19:55:35.890Z,100526.88
2023-09-12T19:58:05.412Z,100530.69
2023-09-12T20:00:33.809Z,100526.31
2023-09-12T20:03:01.636Z,100521.06
2023-09-12T20:05:29.432Z,100519.50
2023-09-12T20:07:57.259Z,100516.09
2023-09-12T20:10:25.048Z,100512.56
2023-09-12T20:12:53.003Z,100511.84
2023-09-12T20:15:23.082Z,100513.94
2023-09-12T20:17:52.723Z,100507.09
2023-09-12T20:20:22.893Z,100508.13
2023-09-12T20:22:51.019Z,100503.84
2023-09-12T20:25:20.413Z,100504.00
2023-09-12T20:27:48.416Z,100503.19
2023-09-12T20:30:16.760Z,100502.38
2023-09-12T20:32:57.756Z,100501.59
2023-09-12T20:35:27.681Z,100499.13
2023-09-12T20:37:56.950Z,100494.72
2023-09-12T20:40:25.217Z,100497.63
2023-09-12T20:42:53.036Z,100497.69
2023-09-12T20:45:20.904Z,100483.47
2023-09-12T20:47:50.404Z,100479.09
2023-09-12T20:50:29.943Z,100494.56
2023-09-12T20:53:00.183Z,100493.94
2023-09-12T20:55:28.457Z,100493.22
2023-09-12T20:57:56.236Z,100494.22
2023-09-12T21:00:26.179Z,100489.88
2023-09-12T21:02:55.522Z,100491.69
2023-09-12T21:05:24.695Z,100490.88
2023-09-12T21:07:53.121Z,100489.22
2023-09-12T21:10:20.989Z,100497.41
2023-09-12T21:12:48.768Z,100494.84
2023-09-12T21:15:16.671Z,100500.25
2023-09-12T21:17:44.435Z,100502.22
2023-09-12T21:20:13.742Z,100495.97
2023-09-12T21:22:41.493Z,100498.72
2023-09-12T21:25:09.691Z,100491.63
2023-09-12T21:27:37.987Z,100488.16
2023-09-12T21:30:06.837Z,100480.19
2023-09-12T21:32:34.822Z,100480.38
2023-09-12T21:35:11.844Z,100466.13
2023-09-12T21:37:40.918Z,100467.25
2023-09-12T21:40:09.946Z,100471.91
2023-09-12T21:42:37.949Z,100471.19
2023-09-12T21:45:06.940Z,100470.41
2023-09-12T21:47:39.334Z,100457.84
2023-09-12T21:50:08.112Z,100451.69
2023-09-12T21:52:36.276Z,100449.00
2023-09-12T21:55:08.363Z,100449.88
2023-09-12T21:57:36.901Z,100451.69
2023-09-12T22:00:17.541Z,100445.44
2023-09-12T22:02:46.017Z,100446.31
2023-09-12T22:05:14.070Z,100448.22
2023-09-12T22:07:41.830Z,100451.78
2023-09-12T22:10:11.381Z,100466.19
2023-09-12T22:12:39.640Z,100466.28
2023-09-12T22:15:08.700Z,100464.53
2023-09-12T22:17:36.719Z,100446.59
2023-09-12T22:20:05.650Z,100446.59
2023-09-12T22:22:33.757Z,100443.03
2023-09-12T22:25:01.592Z,100435.88
2023-09-12T22:27:30.960Z,100436.78
2023-09-12T22:29:58.905Z,100434.16
2023-09-12T22:32:26.616Z,100435.88
2023-09-12T22:34:54.303Z,100449.47
2023-09-12T22:37:22.036Z,100429.84
2023-09-12T22:39:51.369Z,100423.56
2023-09-12T22:42:19.305Z,100413.75
2023-09-12T22:44:48.360Z,100397.56
2023-09-12T22:47:16.455Z,100384.16
2023-09-12T22:49:44.315Z,100374.31
2023-09-12T22:52:12.549Z,100363.59
2023-09-12T22:54:40.392Z,100339.41
2023-09-12T22:57:08.498Z,100326.81
2023-09-12T22:59:36.423Z,100333.13
2023-09-12T23:02:05.961Z,100342.16
2023-09-12T23:04:33.992Z,100332.50
2023-09-12T23:07:03.485Z,100332.63
2023-09-12T23:09:31.409Z,100339.06
2023-09-12T23:11:59.289Z,100345.47
2023-09-12T23:14:27.296Z,100352.69
2023-09-12T23:16:55.090Z,100348.25
2023-09-12T23:19:24.229Z,100366.25
2023-09-12T23:21:51.970Z,100361.78
2023-09-12T23:24:19.721Z,100359.16
2023-09-12T23:26:47.450Z,100365.53
2023-09-12T23:29:15.167Z,100368.28
2023-09-12T23:31:43.326Z,100360.28
2023-09-12T23:34:11.144Z,100363.03
2023-09-12T23:36:40.307Z,100372.97
2023-09-12T23:39:08.090Z,100357.72
2023-09-12T23:41:35.891Z,100343.38
2023-09-12T23:44:03.689Z,100335.28
2023-09-12T23:46:31.766Z,100333.59
2023-09-12T23:49:00.628Z,100341.75
2023-09-12T23:51:28.616Z,100355.25
2023-09-12T23:53:57.740Z,100350.88
2023-09-12T23:56:25.739Z,100351.75
2023-09-12T23:58:53.475Z,100367.91
